Time;durP1;ratioP1;P1;durP2;ratioP2;P2;SDS_P1;SDS_P2;PMS_P1;PMS_P2;Temp;Humidity;BMP_temperature;BMP_pressure;BME280_temperature;BME280_humidity;BME280_pressure;Samples;Min_cycle;Max_cycle;Signal;HPM_P1;HPM_P2
2023/08/22 07:01:22;;;;;;;1.63;0.88;;;22.00;99.90;25.80;101897.00;;;;6211285;22;1450799;-65
2023/08/22 07:03:48;;;;;;;1.90;1.38;;;22.60;99.90;27.40;101931.00;;;;6256039;22;20230;-66
2023/08/22 07:06:14;;;;;;;0.15;0.15;;;23.40;99.90;28.20;101952.00;;;;6281736;22;20231;-66
2023/08/22 07:08:43;;;;;;;0.63;0.63;;;23.90;99.90;27.30;101949.00;;;;6256386;22;20148;-65
2023/08/22 07:11:09;;;;;;;1.00;0.95;;;23.80;99.90;28.30;101981.00;;;;6256490;22;20576;-66
2023/08/22 07:13:36;;;;;;;2.38;1.38;;;24.30;99.90;26.20;101979.00;;;;6256656;22;20156;-66
2023/08/22 07:16:02;;;;;;;0.77;0.77;;;23.50;99.90;24.80;101927.00;;;;6282103;22;20137;-65
2023/08/22 07:18:34;;;;;;;2.35;2.08;;;22.50;99.90;25.10;101895.00;;;;6256554;22;20234;-65
2023/08/22 07:21:04;;;;;;;1.10;1.10;;;22.00;99.90;25.90;101916.00;;;;6256898;22;20509;-65
2023/08/22 07:23:31;;;;;;;1.27;1.25;;;22.20;99.90;25.40;101916.00;;;;6282031;22;20179;-65
2023/08/22 07:26:01;;;;;;;2.75;1.10;;;22.00;99.90;23.50;101899.00;;;;6281970;22;20136;-65
2023/08/22 07:28:33;;;;;;;0.22;0.22;;;21.20;99.90;23.80;101885.00;;;;6282001;22;20200;-65
2023/08/22 07:31:20;;;;;;;2.50;1.13;;;21.00;99.90;24.50;101914.00;;;;6255703;22;20198;-65
2023/08/22 07:33:51;;;;;;;0.95;0.47;;;21.40;99.90;25.40;101921.00;;;;6281904;22;20156;-66
2023/08/22 07:36:46;;;;;;;15.50;1.08;;;21.80;99.90;25.10;101920.00;;;;6256211;22;20584;-66
2023/08/22 07:39:53;;;;;;;1.00;1.00;;;21.90;99.90;24.50;101915.00;;;;6285116;22;20589;-65
2023/08/22 07:42:42;;;;;;;0.98;0.98;;;21.70;99.90;24.20;101910.00;;;;6268258;22;20188;-65
2023/08/22 07:45:11;;;;;;;0.65;0.65;;;21.40;99.90;24.70;101933.00;;;;6259790;22;20560;-66
2023/08/22 07:47:48;;;;;;;0.10;0.10;;;21.50;99.90;26.80;101943.00;;;;6256308;22;20163;-65
2023/08/22 07:50:25;;;;;;;0.38;0.38;;;22.20;99.90;25.30;101944.00;;;;6256336;22;20160;-65
2023/08/22 07:53:00;;;;;;;1.30;1.27;;;22.10;99.90;24.80;101939.00;;;;6255858;22;20184;-66
2023/08/22 07:55:38;;;;;;;0.40;0.40;;;21.70;99.90;25.50;101954.00;;;;6281359;22;20469;-65
2023/08/22 07:58:22;;;;;;;2.83;2.58;;;21.80;99.90;26.50;101960.00;;;;6255911;22;20152;-65
2023/08/22 08:01:16;;;;;;;1.05;0.43;;;22.30;99.90;27.60;101994.00;;;;6260209;22;20176;-65
2023/08/22 08:03:47;;;;;;;0.10;0.10;;;22.90;99.90;28.10;102017.00;;;;6206268;22;20184;-66
2023/08/22 08:06:13;;;;;;;2.25;2.08;;;23.40;99.90;27.40;102031.00;;;;6225164;22;20210;-66
2023/08/22 08:08:39;;;;;;;0.65;0.65;;;23.30;99.90;26.00;102007.00;;;;6225569;22;20236;-65
2023/08/22 08:11:05;;;;;;;1.98;1.80;;;22.70;99.90;25.70;101979.00;;;;6225100;22;20153;-65
2023/08/22 08:13:34;;;;;;;0.10;0.10;;;22.30;99.90;27.80;102003.00;;;;6250651;22;20223;-66
2023/08/22 08:16:43;;;;;;;0.10;0.10;;;22.80;99.90;28.40;102027.00;;;;6225128;22;20159;-66
2023/08/22 08:19:39;;;;;;;0.10;0.10;;;23.30;99.90;28.20;102039.00;;;;6208044;22;20651;-66
2023/08/22 08:22:32;;;;;;;0.10;0.10;;;23.50;99.90;29.20;102035.00;;;;6250721;22;20223;-66
2023/08/22 08:25:01;;;;;;;0.10;0.10;;;24.00;99.90;29.50;102034.00;;;;6250298;22;20175;-66
2023/08/22 08:27:34;;;;;;;0.75;0.75;;;24.70;99.90;29.20;102038.00;;;;6251850;22;20267;-66
2023/08/22 08:30:04;;;;;;;1.35;1.20;;;24.80;99.90;28.00;102052.00;;;;6248810;22;20165;-66
2023/08/22 08:32:51;;;;;;;0.77;0.77;;;24.00;99.90;29.70;102044.00;;;;6251884;22;20141;-66
2023/08/22 08:35:18;;;;;;;1.27;0.98;;;24.70;99.90;29.70;102032.00;;;;6250683;22;20152;-66
2023/08/22 08:37:47;;;;;;;2.47;2.38;;;25.00;99.90;27.80;102064.00;;;;6277041;22;20157;-66
2023/08/22 08:40:35;;;;;;;1.77;1.15;;;24.80;99.90;28.30;102061.00;;;;6225177;22;20790;-66
2023/08/22 08:43:05;;;;;;;1.08;0.22;;;24.60;99.90;25.80;102078.00;;;;6277118;22;20589;-66
2023/08/22 08:45:39;;;;;;;0.82;0.75;;;23.00;99.90;26.10;102053.00;;;;6277831;22;20134;-65
2023/08/22 08:48:13;;;;;;;0.10;0.10;;;22.40;99.90;29.10;102049.00;;;;6224886;22;20539;-66
2023/08/22 08:50:39;;;;;;;0.10;0.10;;;23.60;99.90;30.40;102036.00;;;;6251047;22;20214;-66
2023/08/22 08:53:28;;;;;;;1.42;1.00;;;24.80;99.90;26.80;102076.00;;;;6225239;22;20160;-66
2023/08/22 08:55:57;;;;;;;1.95;0.93;;;23.90;99.90;26.40;102074.00;;;;6224426;22;20161;-66
2023/08/22 08:58:23;;;;;;;0.77;0.77;;;23.20;99.90;28.10;102065.00;;;;6225002;22;20216;-66
2023/08/22 09:01:15;;;;;;;1.35;0.85;;;23.70;99.90;25.80;102079.00;;;;6245359;22;20266;-66
2023/08/22 09:03:44;;;;;;;2.28;1.23;;;23.00;99.90;25.70;102048.00;;;;6280318;22;20176;-66
2023/08/22 09:06:10;;;;;;;1.27;1.25;;;22.60;99.90;26.70;102041.00;;;;6281008;22;20147;-66
2023/08/22 09:09:04;;;;;;;2.05;0.52;;;23.00;99.90;28.50;102053.00;;;;6254978;22;20153;-66
2023/08/22 09:11:35;;;;;;;2.55;1.20;;;24.00;99.90;28.20;102062.00;;;;6255320;22;20572;-66
2023/08/22 09:14:05;;;;;;;0.80;0.80;;;24.10;99.90;28.90;102056.00;;;;6280761;22;20251;-66
2023/08/22 09:16:30;;;;;;;0.77;0.77;;;24.50;99.90;29.90;102048.00;;;;6254512;22;20194;-66
2023/08/22 09:19:00;;;;;;;7.28;0.80;;;25.60;99.90;29.90;102052.00;;;;6254717;22;20564;-66
2023/08/22 09:21:29;;;;;;;0.85;0.57;;;25.80;99.90;27.00;102100.00;;;;6255180;22;20231;-66
2023/08/22 09:24:13;;;;;;;2.30;1.67;;;24.90;99.90;26.40;102097.00;;;;6280779;22;20243;-66
2023/08/22 09:26:49;;;;;;;4.57;1.20;;;23.80;99.90;26.40;102096.00;;;;6255278;22;20198;-66
2023/08/22 09:29:15;;;;;;;1.38;1.27;;;23.30;99.90;27.00;102089.00;;;;6255213;22;20182;-66
2023/08/22 09:31:46;;;;;;;0.17;0.17;;;23.20;99.90;28.50;102077.00;;;;6255015;22;20561;-66
2023/08/22 09:34:16;;;;;;;2.20;1.33;;;24.00;99.90;28.60;102071.00;;;;6254359;22;20155;-66
2023/08/22 09:36:45;;;;;;;0.95;0.95;;;24.20;99.90;27.20;102089.00;;;;6255188;22;20162;-66
2023/08/22 09:39:21;;;;;;;0.10;0.10;;;23.80;99.90;29.60;102067.00;;;;6255105;22;20156;-66
2023/08/22 09:42:07;;;;;;;1.55;0.90;;;24.40;99.90;30.50;102037.00;;;;6281831;22;20591;-66
2023/08/22 09:44:38;;;;;;;0.35;0.35;;;25.50;99.90;29.70;102044.00;;;;6255525;22;20152;-66
2023/08/22 09:47:08;;;;;;;0.10;0.10;;;25.20;99.90;30.00;102045.00;;;;6255192;22;20164;-67
2023/08/22 09:49:41;;;;;;;0.10;0.10;;;25.70;99.90;29.40;102072.00;;;;6280640;22;20151;-66
2023/08/22 09:52:17;;;;;;;0.10;0.10;;;25.20;99.90;30.20;102041.00;;;;6254991;22;20155;-67
2023/08/22 09:54:44;;;;;;;0.10;0.10;;;25.60;99.90;30.60;102047.00;;;;6280368;22;20467;-66
2023/08/22 09:57:13;;;;;;;0.45;0.40;;;25.80;99.90;28.30;102086.00;;;;6254988;22;20242;-66
2023/08/22 09:59:39;;;;;;;1.38;1.00;;;25.20;99.90;27.10;102102.00;;;;6274278;22;20161;-66
2023/08/22 10:02:06;;;;;;;2.35;0.65;;;24.30;99.90;28.10;102088.00;;;;6249459;22;20175;-66
2023/08/22 10:04:36;;;;;;;0.77;0.77;;;24.10;99.90;27.30;102098.00;;;;6249375;22;20165;-66
2023/08/22 10:07:02;;;;;;;1.85;1.20;;;24.20;99.90;27.70;102106.00;;;;6224316;22;20214;-66
2023/08/22 10:09:30;;;;;;;0.50;0.50;;;24.20;99.90;27.30;102100.00;;;;6224688;22;20192;-65
2023/08/22 10:12:02;;;;;;;0.10;0.10;;;24.00;99.90;29.50;102072.00;;;;6224033;22;20554;-66
2023/08/22 10:14:41;;;;;;;0.10;0.10;;;24.90;99.90;29.60;102072.00;;;;6249408;22;20349;-66
2023/08/22 10:17:15;;;;;;;0.10;0.10;;;25.20;99.90;32.20;102022.00;;;;6249064;22;20231;-66
2023/08/22 10:19:49;;;;;;;0.15;0.15;;;26.50;99.90;32.20;102007.00;;;;6250381;22;20187;-66
2023/08/22 10:33:30;;;;;;;0.10;0.10;;;27.30;99.90;30.60;102031.00;;;;5070415;28;20551;-67
2023/08/22 10:36:17;;;;;;;0.10;0.10;;;26.90;99.90;28.60;102084.00;;;;5050154;28;20226;-67
2023/08/22 10:38:52;;;;;;;0.10;0.10;;;25.40;99.90;30.20;102062.00;;;;5049232;28;20277;-66
2023/08/22 10:41:45;;;;;;;0.10;0.10;;;25.50;99.90;28.50;102080.00;;;;5049652;28;20278;-67
2023/08/22 10:44:30;;;;;;;0.45;0.22;;;25.00;99.90;28.30;102088.00;;;;5029585;28;20529;-67
2023/08/22 10:47:04;;;;;;;0.10;0.10;;;24.90;99.90;29.60;102075.00;;;;5048754;28;20192;-66
2023/08/22 10:49:38;;;;;;;0.10;0.10;;;24.80;99.90;31.80;102046.00;;;;5046841;28;20197;-67
2023/08/22 10:52:10;;;;;;;1.63;1.58;;;26.10;99.90;31.70;102015.00;;;;5058912;28;20658;-67
2023/08/22 10:54:59;;;;;;;2.72;0.60;;;26.70;99.90;28.00;102077.00;;;;5049028;28;20650;-67
2023/08/22 10:57:28;;;;;;;0.10;0.10;;;25.40;99.90;27.70;102100.00;;;;5048580;28;20225;-67
2023/08/22 11:02:35;;;;;;;0.10;0.10;;;24.20;99.90;27.80;102101.00;;;;5048825;28;20213;-66
2023/08/22 11:05:12;;;;;;;0.10;0.10;;;24.20;99.90;28.80;102086.00;;;;5032113;28;20186;-66
2023/08/22 11:07:54;;;;;;;0.77;0.43;;;24.70;99.90;29.30;102057.00;;;;5048996;28;20301;-66
2023/08/22 11:10:35;;;;;;;0.40;0.40;;;25.10;99.90;29.40;102080.00;;;;5047319;28;20179;-66
2023/08/22 11:13:13;;;;;;;0.10;0.10;;;25.00;99.90;28.60;102085.00;;;;5044881;28;20202;-66
2023/08/22 11:15:41;;;;;;;0.22;0.22;;;24.90;99.90;28.70;102085.00;;;;5032460;28;20193;-66
2023/08/22 11:18:12;;;;;;;0.30;0.30;;;25.20;99.90;30.30;102055.00;;;;5048494;28;20272;-67
2023/08/22 11:21:36;;;;;;;0.10;0.10;;;25.50;99.90;29.40;102074.00;;;;5032450;28;20243;-66
2023/08/22 11:24:28;;;;;;;0.10;0.10;;;25.50;99.90;28.30;102094.00;;;;5046397;28;20194;-66
2023/08/22 11:26:57;;;;;;;0.80;0.80;;;24.90;99.90;30.20;102077.00;;;;5061674;28;20213;-66
2023/08/22 11:29:46;;;;;;;0.10;0.10;;;25.50;99.90;30.40;102055.00;;;;5047798;28;20183;-67
2023/08/22 11:32:38;;;;;;;0.10;0.10;;;25.80;99.90;29.90;102058.00;;;;5007372;28;20263;-66
2023/08/22 11:35:13;;;;;;;0.10;0.10;;;25.90;99.90;30.80;102042.00;;;;5047990;28;20182;-66
2023/08/22 11:37:41;;;;;;;0.20;0.20;;;26.20;99.90;28.90;102068.00;;;;5040324;28;20186;-66
2023/08/22 11:40:14;;;;;;;0.20;0.20;;;26.00;99.90;31.10;102045.00;;;;5047736;28;20186;-67
2023/08/22 11:42:41;;;;;;;0.20;0.20;;;26.20;99.90;32.10;102018.00;;;;5046790;28;20273;-67
2023/08/22 11:45:13;;;;;;;0.22;0.22;;;26.90;99.90;31.10;102043.00;;;;5017586;28;20649;-67
2023/08/22 11:47:54;;;;;;;0.10;0.10;;;26.80;99.90;29.20;102071.00;;;;5035768;28;20218;-66
2023/08/22 11:50:30;;;;;;;0.10;0.10;;;26.00;99.90;28.80;102092.00;;;;5025298;28;20585;-65
2023/08/22 11:53:15;;;;;;;0.30;0.30;;;25.00;99.90;28.80;102088.00;;;;5018469;28;20201;-67
2023/08/22 11:55:44;;;;;;;0.10;0.10;;;25.40;99.90;29.30;102078.00;;;;5034858;28;20189;-67
2023/08/22 11:58:15;;;;;;;0.20;0.20;;;25.20;99.90;28.40;102101.00;;;;5033970;28;20273;-67
2023/08/22 12:00:50;;;;;;;1.95;0.85;;;25.20;99.90;28.20;102100.00;;;;5034224;28;20194;-66
2023/08/22 12:03:24;;;;;;;0.13;0.13;;;24.90;99.90;28.50;102100.00;;;;5031259;28;20194;-67
2023/08/22 12:05:53;;;;;;;0.10;0.10;;;24.90;99.90;27.30;102120.00;;;;5018172;28;20242;-67
2023/08/22 12:08:24;;;;;;;0.35;0.35;;;24.30;99.90;27.70;102119.00;;;;5017741;28;20244;-67
2023/08/22 12:10:53;;;;;;;0.20;0.20;;;24.20;99.90;28.10;102101.00;;;;5014298;28;20203;-66
2023/08/22 12:13:25;;;;;;;0.15;0.15;;;24.40;99.90;28.90;102101.00;;;;5066874;28;20202;-67
2023/08/22 12:15:51;;;;;;;0.10;0.10;;;24.80;99.90;27.80;102107.00;;;;5013836;28;20179;-67
2023/08/22 12:18:34;;;;;;;0.17;0.17;;;24.50;99.90;29.80;102085.00;;;;5045666;28;20270;-67
2023/08/22 12:21:09;;;;;;;0.10;0.10;;;25.10;99.90;31.30;102060.00;;;;5011148;28;20281;-68
2023/08/22 12:23:40;;;;;;;0.10;0.10;;;26.00;99.90;31.20;102057.00;;;;5062793;28;20182;-67
2023/08/22 12:26:12;;;;;;;0.10;0.10;;;26.20;99.90;31.90;102040.00;;;;5034053;28;20195;-67
2023/08/22 12:28:38;;;;;;;0.10;0.10;;;26.80;99.90;32.50;102031.00;;;;5033417;28;20290;-67
2023/08/22 12:31:04;;;;;;;0.45;0.45;;;27.20;99.90;32.10;102024.00;;;;5019615;28;20186;-67
2023/08/22 12:33:30;;;;;;;0.10;0.10;;;27.50;99.90;29.40;102077.00;;;;5005408;28;20199;-67
2023/08/22 12:35:56;;;;;;;0.10;0.10;;;26.00;99.90;31.20;102059.00;;;;5017325;28;20190;-66
2023/08/22 12:38:27;;;;;;;0.60;0.60;;;26.10;99.90;30.60;102054.00;;;;5033979;28;20190;-67
2023/08/22 12:40:57;;;;;;;0.10;0.10;;;26.40;99.90;30.20;102064.00;;;;5033629;28;20226;-67
2023/08/22 12:43:32;;;;;;;0.10;0.10;;;26.10;99.90;31.40;102048.00;;;;5017245;28;20186;-67
2023/08/22 12:46:04;;;;;;;0.17;0.17;;;26.40;99.90;28.50;102077.00;;;;5034804;28;20573;-66
2023/08/22 12:48:35;;;;;;;0.43;0.43;;;25.60;99.90;28.80;102077.00;;;;5017285;28;20195;-66
2023/08/22 12:51:22;;;;;;;0.32;0.32;;;25.30;99.90;30.80;102052.00;;;;5016922;28;20195;-66
2023/08/22 12:53:53;;;;;;;0.50;0.40;;;26.00;99.90;30.70;102054.00;;;;5022642;28;20183;-66
2023/08/22 12:56:43;;;;;;;0.20;0.20;;;26.20;99.90;32.30;102031.00;;;;5012554;28;20196;-68
2023/08/22 12:59:12;;;;;;;0.10;0.10;;;26.90;99.90;33.10;102007.00;;;;5027150;28;20189;-66
2023/08/22 13:01:40;;;;;;;1.92;1.02;;;27.70;99.90;32.30;102032.00;;;;5014566;28;20680;-66
2023/08/22 13:04:13;;;;;;;0.20;0.20;;;27.90;99.90;29.90;102061.00;;;;5033220;28;20540;-66
2023/08/22 13:06:50;;;;;;;0.35;0.35;;;26.90;99.90;31.80;102041.00;;;;5033206;28;20198;-66
2023/08/22 13:09:16;;;;;;;0.10;0.10;;;27.10;99.90;33.00;102012.00;;;;5016638;28;20202;-66
2023/08/22 13:12:05;;;;;;;0.10;0.10;;;27.60;99.90;33.60;102001.00;;;;5012670;28;20575;-66
2023/08/22 13:14:42;;;;;;;0.10;0.10;;;28.30;99.90;34.20;101985.00;;;;5015964;28;20661;-66
2023/08/22 13:17:11;;;;;;;0.77;0.77;;;28.80;99.90;32.30;102021.00;;;;5016664;28;20216;-66
2023/08/22 13:19:43;;;;;;;0.10;0.10;;;28.50;99.90;30.50;102060.00;;;;5032895;28;20202;-66
2023/08/22 13:22:14;;;;;;;0.10;0.10;;;27.00;99.90;31.30;102048.00;;;;5016737;28;20199;-66
2023/08/22 13:24:48;;;;;;;0.20;0.20;;;26.90;99.90;30.70;102061.00;;;;5015645;28;20175;-66
2023/08/22 13:27:18;;;;;;;0.10;0.10;;;26.70;99.90;32.70;102039.00;;;;5016240;28;20190;-66
2023/08/22 13:29:50;;;;;;;0.10;0.10;;;27.40;99.90;32.80;102021.00;;;;5013363;28;20274;-67
2023/08/22 13:32:19;;;;;;;4.38;1.75;;;27.90;99.90;30.90;102056.00;;;;5027157;28;20233;-66
2023/08/22 13:34:48;;;;;;;0.10;0.10;;;27.30;99.90;30.20;102072.00;;;;5015953;28;20193;-66
2023/08/22 13:37:14;;;;;;;0.10;0.10;;;26.50;99.90;30.80;102066.00;;;;5015771;28;20183;-67
2023/08/22 13:39:45;;;;;;;4.55;3.10;;;26.40;99.90;32.20;102053.00;;;;5015828;28;20183;-66
2023/08/22 13:42:14;;;;;;;1.90;1.30;;;27.00;99.90;29.40;102090.00;;;;5026869;28;20195;-66
2023/08/22 13:44:45;;;;;;;3.97;2.15;;;26.40;99.90;30.30;102072.00;;;;5013621;28;20279;-66
2023/08/22 13:47:15;;;;;;;0.17;0.17;;;26.20;99.90;31.30;102055.00;;;;5017384;28;20201;-67
2023/08/22 13:49:44;;;;;;;1.10;1.00;;;26.60;99.90;30.40;102068.00;;;;5013566;28;20252;-67
2023/08/22 13:52:15;;;;;;;0.35;0.35;;;26.50;99.90;32.00;102043.00;;;;5017399;28;20743;-67
2023/08/22 13:54:41;;;;;;;0.25;0.25;;;27.00;99.90;31.30;102050.00;;;;5031779;28;20182;-67
2023/08/22 13:57:08;;;;;;;0.10;0.10;;;27.00;99.90;31.30;102053.00;;;;5015753;28;20195;-67
2023/08/22 13:59:40;;;;;;;0.10;0.10;;;26.70;99.90;31.10;102057.00;;;;5015603;28;20193;-67
2023/08/22 14:02:06;;;;;;;0.10;0.10;;;26.60;99.90;32.80;102030.00;;;;5055143;28;20199;-67
2023/08/22 14:04:38;;;;;;;0.10;0.10;;;27.30;99.90;33.00;102021.00;;;;5024524;28;20546;-67
2023/08/22 14:07:04;;;;;;;0.20;0.20;;;27.60;99.90;33.50;102011.00;;;;5015330;28;20191;-67
2023/08/22 14:09:30;;;;;;;0.10;0.10;;;28.20;99.90;33.80;102005.00;;;;5015002;28;20194;-67
2023/08/22 14:12:02;;;;;;;0.10;0.10;;;28.50;99.90;34.00;102001.00;;;;5033054;28;20203;-67
2023/08/22 14:14:37;;;;;;;0.20;0.20;;;28.60;99.90;34.00;101993.00;;;;5011949;28;20191;-67
2023/08/22 14:17:06;;;;;;;0.17;0.17;;;28.70;99.90;32.50;102014.00;;;;5059577;28;20190;-67
2023/08/22 14:19:38;;;;;;;0.30;0.30;;;28.40;99.90;31.60;102029.00;;;;4995785;28;20219;-67
2023/08/22 14:22:07;;;;;;;0.10;0.10;;;27.40;99.90;32.30;102024.00;;;;5029082;28;20194;-67
2023/08/22 14:24:35;;;;;;;0.10;0.10;;;27.50;99.90;31.60;102018.00;;;;5015173;28;20270;-67
2023/08/22 14:27:02;;;;;;;0.20;0.20;;;27.30;99.90;32.80;102010.00;;;;5012344;28;20198;-67
2023/08/22 14:29:39;;;;;;;0.10;0.10;;;27.70;99.90;32.90;102004.00;;;;5063821;28;20194;-67
2023/08/22 14:32:10;;;;;;;0.15;0.15;;;27.80;99.90;33.50;102004.00;;;;5012609;28;20211;-67
2023/08/22 14:34:36;;;;;;;0.25;0.25;;;28.20;99.90;33.70;101984.00;;;;5062370;28;20217;-67
2023/08/22 14:37:05;;;;;;;0.10;0.10;;;28.50;99.90;33.20;101978.00;;;;5015353;28;20597;-68
2023/08/22 14:39:42;;;;;;;0.10;0.10;;;28.50;99.90;33.70;101978.00;;;;5014646;28;20183;-68
2023/08/22 14:42:32;;;;;;;1.35;1.25;;;28.50;99.90;32.90;101982.00;;;;5028823;28;20624;-68
2023/08/22 14:45:04;;;;;;;0.30;0.30;;;28.40;99.90;31.70;102010.00;;;;5007027;28;20744;-68
2023/08/22 14:47:30;;;;;;;0.10;0.10;;;28.00;99.90;32.90;101998.00;;;;5018915;28;20191;-67
2023/08/22 14:49:56;;;;;;;0.10;0.10;;;27.80;99.90;32.30;101981.00;;;;5014774;28;20186;-67
2023/08/22 14:52:28;;;;;;;0.10;0.10;;;27.80;99.90;32.50;102005.00;;;;5014507;28;20664;-68
2023/08/22 14:54:57;;;;;;;0.10;0.10;;;27.70;99.90;33.00;101991.00;;;;5015099;28;20183;-68
2023/08/22 14:57:28;;;;;;;0.10;0.10;;;27.80;99.90;31.80;102005.00;;;;5017349;28;20270;-68
2023/08/22 14:59:54;;;;;;;0.38;0.20;;;27.20;99.90;32.40;102014.00;;;;5015261;28;20191;-67
2023/08/22 15:02:20;;;;;;;0.80;0.63;;;27.30;99.90;32.00;102020.00;;;;5014647;28;20195;-68
2023/08/22 15:04:46;;;;;;;0.10;0.10;;;27.30;99.90;32.30;102015.00;;;;5014942;28;20190;-68
2023/08/22 15:07:12;;;;;;;0.40;0.40;;;27.50;99.90;31.60;102019.00;;;;5012816;28;20184;-67
2023/08/22 15:09:38;;;;;;;0.70;0.63;;;27.00;99.90;31.40;102016.00;;;;5014847;28;20240;-67
2023/08/22 15:12:05;;;;;;;0.50;0.50;;;27.00;99.90;31.50;102013.00;;;;5014765;28;20195;-68
2023/08/22 15:14:34;;;;;;;0.10;0.10;;;27.00;99.90;32.30;101999.00;;;;5031246;28;20622;-68
2023/08/22 15:17:00;;;;;;;1.30;1.30;;;27.10;99.90;31.60;102003.00;;;;5015630;28;20274;-68
2023/08/22 15:19:31;;;;;;;0.10;0.10;;;27.00;99.90;32.00;102008.00;;;;5050238;28;20194;-68
2023/08/22 15:22:02;;;;;;;0.10;0.10;;;27.10;99.90;31.20;102012.00;;;;5018374;28;20205;-67
2023/08/22 15:24:28;;;;;;;0.65;0.55;;;26.90;99.90;31.40;102014.00;;;;5019000;28;20653;-68
2023/08/22 15:26:55;;;;;;;0.10;0.10;;;26.70;99.90;31.60;102007.00;;;;5018776;28;20637;-68
2023/08/22 15:29:23;;;;;;;1.17;0.75;;;26.90;99.90;30.10;102033.00;;;;5020003;28;20218;-67
2023/08/22 15:32:01;;;;;;;0.10;0.10;;;26.20;99.90;30.90;102024.00;;;;5034845;28;20214;-67
2023/08/22 15:34:39;;;;;;;1.40;1.30;;;26.20;99.90;30.40;102021.00;;;;5015753;28;20194;-68
2023/08/22 15:37:13;;;;;;;0.60;0.60;;;26.30;99.90;29.70;102024.00;;;;5049392;28;20182;-68
2023/08/22 15:39:39;;;;;;;0.10;0.10;;;26.10;99.90;30.60;102019.00;;;;5018038;28;20210;-68
2023/08/22 15:42:05;;;;;;;2.25;1.63;;;26.10;99.90;30.80;102016.00;;;;5017953;28;20284;-68
2023/08/22 15:44:35;;;;;;;0.75;0.75;;;26.30;99.90;29.40;102021.00;;;;5018485;28;20525;-67
2023/08/22 15:47:01;;;;;;;0.25;0.25;;;26.00;99.90;30.10;102020.00;;;;5017759;28;20183;-67
2023/08/22 15:49:32;;;;;;;7.25;1.77;;;25.90;99.90;30.50;102019.00;;;;5008420;28;20649;-65
2023/08/22 15:52:00;;;;;;;0.52;0.52;;;26.00;99.90;30.90;102010.00;;;;5014534;28;20262;-68
2023/08/22 15:54:31;;;;;;;0.10;0.10;;;26.30;99.90;31.00;102005.00;;;;5046751;28;20186;-67
2023/08/22 15:56:57;;;;;;;2.05;1.40;;;26.30;99.90;31.10;101998.00;;;;5014133;28;20278;-68
2023/08/22 15:59:24;;;;;;;1.70;1.60;;;26.60;99.90;30.10;102017.00;;;;5050297;28;20277;-65
2023/08/22 16:01:50;;;;;;;0.10;0.10;;;26.40;99.90;29.30;102024.00;;;;5020793;28;20230;-67
2023/08/22 16:04:15;;;;;;;1.42;1.30;;;25.80;99.90;29.60;102017.00;;;;5048075;28;20652;-67
2023/08/22 16:06:44;;;;;;;3.03;1.13;;;25.70;99.90;28.80;102032.00;;;;5017279;28;20207;-67
2023/08/22 16:09:19;;;;;;;0.10;0.10;;;25.60;99.90;29.40;102030.00;;;;5032078;28;20278;-67
2023/08/22 16:11:51;;;;;;;0.28;0.28;;;25.60;99.90;31.00;102004.00;;;;5033786;28;20206;-65
2023/08/22 16:14:17;;;;;;;0.10;0.10;;;25.90;99.90;31.60;101993.00;;;;5034024;28;20183;-65
2023/08/22 16:16:49;;;;;;;0.10;0.10;;;26.40;99.90;31.90;101967.00;;;;5017874;28;20183;-66
2023/08/22 16:19:15;;;;;;;2.55;0.80;;;26.70;99.90;29.70;102017.00;;;;5034078;28;20187;-65
2023/08/22 16:21:46;;;;;;;0.10;0.10;;;26.20;99.90;30.80;102005.00;;;;5023002;28;20548;-65
2023/08/22 16:24:15;;;;;;;0.10;0.10;;;26.20;99.90;31.60;101988.00;;;;5014121;28;20210;-68
2023/08/22 16:26:41;;;;;;;0.10;0.10;;;26.40;99.90;31.70;101986.00;;;;5064790;28;20194;-66
2023/08/22 16:29:08;;;;;;;0.30;0.30;;;26.60;99.90;32.20;101974.00;;;;5017141;28;20190;-65
2023/08/22 16:31:34;;;;;;;14.38;1.23;;;26.90;99.90;30.40;101999.00;;;;5033572;28;20214;-65
2023/08/22 16:34:05;;;;;;;0.10;0.10;;;26.40;99.90;29.60;102015.00;;;;5034449;28;20183;-65
2023/08/22 16:36:31;;;;;;;0.10;0.10;;;26.10;99.90;30.60;102003.00;;;;5016092;28;20281;-66
2023/08/22 16:38:57;;;;;;;0.73;0.73;;;25.90;99.90;30.50;101991.00;;;;5026085;28;20309;-65
2023/08/22 16:41:31;;;;;;;1.58;1.55;;;26.10;99.90;30.70;101993.00;;;;5016745;28;20278;-65
2023/08/22 16:44:00;;;;;;;0.10;0.10;;;25.90;99.90;30.90;101999.00;;;;5033981;28;20656;-65
2023/08/22 16:46:29;;;;;;;0.10;0.10;;;26.10;99.90;31.80;101982.00;;;;5015117;28;20638;-66
2023/08/22 16:48:55;;;;;;;0.10;0.10;;;26.40;99.90;31.90;101970.00;;;;5016873;28;20520;-65
2023/08/22 16:51:27;;;;;;;4.97;1.13;;;26.60;99.90;30.20;101991.00;;;;5013816;28;20596;-65
2023/08/22 16:53:52;;;;;;;0.10;0.10;;;26.10;99.90;31.30;101966.00;;;;5059906;28;20187;-65
2023/08/22 16:56:27;;;;;;;1.35;0.57;;;26.20;99.90;30.70;101975.00;;;;5033153;28;20190;-65
2023/08/22 16:58:53;;;;;;;1.95;0.95;;;26.00;99.90;30.10;101987.00;;;;5033067;28;20637;-65
2023/08/22 17:01:25;;;;;;;2.95;0.70;;;25.90;99.90;29.10;101990.00;;;;5016787;28;20619;-65
2023/08/22 17:03:50;;;;;;;0.20;0.20;;;25.60;99.90;29.90;101977.00;;;;5016325;28;20206;-65
2023/08/22 17:06:22;;;;;;;0.10;0.10;;;25.50;99.90;31.00;101972.00;;;;5034395;28;20728;-65
2023/08/22 17:08:48;;;;;;;0.10;0.10;;;25.80;99.90;30.00;101957.00;;;;5012873;28;20215;-65
2023/08/22 17:11:14;;;;;;;0.43;0.43;;;25.70;99.90;29.50;101972.00;;;;5047654;28;20222;-65
2023/08/22 17:13:43;;;;;;;0.40;0.40;;;25.50;99.90;30.60;101955.00;;;;5013215;28;20194;-65
2023/08/22 17:16:14;;;;;;;0.10;0.10;;;25.70;99.90;31.10;101976.00;;;;5049151;28;20183;-65
2023/08/22 17:18:49;;;;;;;0.55;0.55;;;25.90;99.90;30.20;101982.00;;;;5033854;28;20191;-66
2023/08/22 17:21:17;;;;;;;1.27;0.90;;;25.90;99.90;30.00;101981.00;;;;5016194;28;20194;-65
2023/08/22 17:23:44;;;;;;;0.20;0.20;;;25.60;99.90;30.50;101977.00;;;;5032450;28;20194;-65
2023/08/22 17:26:15;;;;;;;0.10;0.10;;;25.70;99.90;30.80;101945.00;;;;5016486;28;20221;-65
2023/08/22 17:28:42;;;;;;;0.20;0.20;;;25.90;99.90;31.90;101956.00;;;;5032426;28;20179;-65
2023/08/22 17:31:11;;;;;;;0.10;0.10;;;26.30;99.90;31.80;101966.00;;;;5033719;28;20218;-66
2023/08/22 17:33:39;;;;;;;0.10;0.10;;;26.40;99.90;32.00;101952.00;;;;5015864;28;20736;-66
2023/08/22 17:36:14;;;;;;;0.10;0.10;;;26.60;99.90;32.20;101942.00;;;;5012868;28;20195;-66
2023/08/22 17:38:43;;;;;;;0.35;0.35;;;26.70;99.90;31.80;101949.00;;;;5059479;28;20183;-66
2023/08/22 17:41:15;;;;;;;0.30;0.30;;;26.60;99.90;31.30;101956.00;;;;5015239;28;20609;-66
2023/08/22 17:43:42;;;;;;;0.10;0.10;;;26.40;99.90;31.60;101927.00;;;;5015871;28;20183;-66
2023/08/22 17:46:12;;;;;;;0.20;0.20;;;26.40;99.90;30.60;101957.00;;;;5033098;28;20280;-66
2023/08/22 17:48:38;;;;;;;0.10;0.10;;;26.10;99.90;31.20;101953.00;;;;5032436;28;20191;-66
2023/08/22 17:51:10;;;;;;;0.10;0.10;;;26.00;99.90;30.30;101966.00;;;;5033172;28;20182;-66
2023/08/22 17:53:39;;;;;;;0.20;0.20;;;25.70;99.90;30.80;101955.00;;;;5015239;28;20217;-66
2023/08/22 17:56:10;;;;;;;0.10;0.10;;;25.70;99.90;30.60;101960.00;;;;5032683;28;20202;-66
2023/08/22 17:58:42;;;;;;;0.17;0.17;;;25.70;99.90;30.90;101961.00;;;;5012216;28;20271;-66
2023/08/22 18:01:13;;;;;;;0.10;0.10;;;25.90;99.90;30.80;101966.00;;;;5046174;28;20187;-65
2023/08/22 18:03:39;;;;;;;0.32;0.32;;;25.70;99.90;30.80;101967.00;;;;5012419;28;20598;-66
2023/08/22 18:06:08;;;;;;;0.10;0.10;;;25.80;99.90;31.30;101955.00;;;;5045734;28;20214;-66
2023/08/22 18:08:36;;;;;;;0.10;0.10;;;26.10;99.90;30.30;101970.00;;;;5016108;28;20183;-66
2023/08/22 18:11:05;;;;;;;0.10;0.10;;;25.70;99.90;30.90;101966.00;;;;5032233;28;20174;-66
2023/08/22 18:13:31;;;;;;;0.20;0.20;;;25.70;99.90;29.50;101985.00;;;;5015471;28;20267;-65
2023/08/22 18:16:04;;;;;;;0.15;0.15;;;25.50;99.90;29.90;101985.00;;;;5015330;28;20191;-66
2023/08/22 18:18:31;;;;;;;0.10;0.10;;;25.40;99.90;30.80;101976.00;;;;5031716;28;20186;-66
2023/08/22 18:21:11;;;;;;;0.40;0.40;;;25.50;99.90;31.30;101969.00;;;;5015445;28;20244;-65
2023/08/22 18:23:38;;;;;;;0.50;0.47;;;25.90;99.90;30.70;101979.00;;;;5015275;28;20265;-66